CheckWX is a tool to help pilots better visualize weather data.  It is not intended as a substitute for an official pre-flight weather briefing.

20:57:44 UTC

KPNT METAR
Pontiac Municipal Airport
Pontiac, Illinois, USA
Current

23 mins ago

KPNT 182035Z AUTO 33008KT 10SM OVC016 M03/M04 A3043 RMK AO2 T10261043
Observed
Feb-18 @ 20:35 UTC
Wind
  • 330° at 8 KTS
Visibility
10 SM
Flight Rules
MVFR
Cloud Levels
  • Overcast at 1,600' AGL
Temperature
-3°C / 27°F
Dewpoint
-4°C / 25°F
Humidity
93%
Altimeter
30.43" Hg
Pressure
1030.51 hPa
Previous

43 mins ago

KPNT 182015Z AUTO 30010KT 10SM BKN016 OVC030 M02/M03 A3042 RMK AO2 T10181035
Observed
Feb-18 @ 20:15 UTC
Wind
  • 300° at 10 KTS
Visibility
10 SM
Flight Rules
MVFR
Cloud Levels
  • Broken at 1,600' AGL
  • Overcast at 3,000' AGL
Temperature
-2°C / 28°F
Dewpoint
-4°C / 25°F
Humidity
86%
Altimeter
30.42" Hg
Pressure
1030.11 hPa
Previous

1 hour ago

KPNT 181955Z AUTO 29003KT 10SM OVC016 M03/M04 A3041 RMK AO2 T10271045
Observed
Feb-18 @ 19:55 UTC
Wind
  • 290° at 3 KTS
Visibility
10 SM
Flight Rules
MVFR
Cloud Levels
  • Overcast at 1,600' AGL
Temperature
-3°C / 27°F
Dewpoint
-5°C / 23°F
Humidity
86%
Altimeter
30.41" Hg
Pressure
1029.81 hPa